Terminal Aerodrome Forecast
Issued by NWS

Home | Current Version | Previous Version | Text Only | Print | Product List | Glossary On
Versions: 1 2 3 4 5 6 7 8 9 10 11 12
768
FTUS45 KRIW 232330
TAFBPI
TAF
KBPI 232330Z 2400/2424 28010KT P6SM VCSH SCT025 BKN040
     FM240300 32011KT 6SM -SHRA SCT012 OVC030
     FM240700 31012G19KT 5SM -SHRA SCT010 BKN020
     FM241400 33015G25KT P6SM VCSH SCT020 BKN035
     FM241900 33018G26KT P6SM SCT040 BKN100=

USA.gov is the U.S. government's official web portal to all federal, state and local government web resources and services.